Time;durP1;ratioP1;P1;durP2;ratioP2;P2;SDS_P1;SDS_P2;PMS_P1;PMS_P2;Temp;Humidity;BMP_temperature;BMP_pressure;BME280_temperature;BME280_humidity;BME280_pressure;Samples;Min_cycle;Max_cycle;Signal;HPM_P1;HPM_P2
2023/08/13 00:01:36;;;;;;;0.45;0.40;;;;;;;36.00;22.71;101110.78;5098754;28;20448;-77
2023/08/13 00:04:05;;;;;;;2.00;0.60;;;;;;;36.04;23.64;101112.31;5111942;28;20051;-79
2023/08/13 00:06:33;;;;;;;1.52;0.70;;;;;;;36.00;23.60;101103.56;5107194;28;20051;-79
2023/08/13 00:09:02;;;;;;;1.48;0.47;;;;;;;35.94;23.06;101112.09;5098497;28;20048;-77
2023/08/13 00:11:36;;;;;;;1.10;0.50;;;;;;;35.92;23.90;101113.16;5106484;28;20133;-84
2023/08/13 00:14:05;;;;;;;0.88;0.50;;;;;;;35.93;23.16;101104.13;5100066;28;20465;-81
2023/08/13 00:16:33;;;;;;;2.42;0.70;;;;;;;35.94;22.99;101104.03;5107251;28;20044;-84
2023/08/13 00:19:03;;;;;;;2.13;0.47;;;;;;;35.89;23.13;101095.41;5107098;28;20104;-80
2023/08/13 00:21:31;;;;;;;0.70;0.60;;;;;;;35.96;23.56;101104.75;5106787;28;20048;-75
2023/08/13 00:24:03;;;;;;;2.00;0.50;;;;;;;35.91;23.34;101101.53;5109104;28;20070;-77
2023/08/13 00:26:33;;;;;;;0.40;0.30;;;;;;;35.69;23.61;101085.19;5111775;28;20051;-76
2023/08/13 00:29:01;;;;;;;1.77;0.40;;;;;;;35.59;23.42;101083.13;5109573;28;20066;-80
2023/08/13 00:31:32;;;;;;;2.28;0.60;;;;;;;35.56;23.92;101096.81;5100957;28;20055;-77
2023/08/13 00:34:03;;;;;;;1.13;0.50;;;;;;;35.55;24.71;101099.59;5102360;28;20051;-79
2023/08/13 00:36:31;;;;;;;0.47;0.40;;;;;;;35.55;24.31;101094.22;5106955;28;20043;-78
2023/08/13 00:39:00;;;;;;;0.82;0.40;;;;;;;35.50;23.61;101091.84;5104830;28;20052;-78
2023/08/13 00:41:28;;;;;;;1.83;0.52;;;;;;;35.50;23.48;101089.16;5097725;28;20503;-78
2023/08/13 00:44:02;;;;;;;0.55;0.50;;;;;;;35.47;24.12;101089.38;5102559;28;20573;-77
2023/08/13 00:46:31;;;;;;;1.25;0.50;;;;;;;35.46;24.38;101090.34;5110142;28;20111;-79
2023/08/13 00:49:01;;;;;;;0.40;0.40;;;;;;;35.46;24.35;101087.66;5094986;28;20390;-81
2023/08/13 00:51:31;;;;;;;0.75;0.50;;;;;;;35.46;23.47;101076.88;5095326;28;20044;-79
2023/08/13 00:53:59;;;;;;;1.58;0.60;;;;;;;35.43;23.24;101080.66;5103306;28;20082;-79
2023/08/13 00:56:28;;;;;;;0.65;0.40;;;;;;;35.39;23.82;101083.66;5094558;28;20058;-80
2023/08/13 00:58:58;;;;;;;1.10;0.60;;;;;;;35.30;24.23;101069.06;5092605;28;20056;-78
2023/08/13 01:01:27;;;;;;;2.33;0.70;;;;;;;35.28;24.13;101072.78;5105837;28;20235;-79
2023/08/13 01:03:56;;;;;;;1.90;0.60;;;;;;;35.22;23.95;101082.16;5097125;28;20044;-77
2023/08/13 01:06:34;;;;;;;1.65;0.50;;;;;;;35.10;23.87;101073.09;5099321;28;20481;-77
2023/08/13 01:09:12;;;;;;;0.80;0.50;;;;;;;34.99;24.46;101064.88;5095395;28;20499;-80
2023/08/13 01:11:50;;;;;;;0.80;0.60;;;;;;;34.86;24.81;101061.31;5104212;28;20052;-77
2023/08/13 01:14:28;;;;;;;2.25;0.70;;;;;;;34.73;24.71;101080.97;5106114;28;20047;-81
2023/08/13 01:16:59;;;;;;;1.20;0.38;;;;;;;34.54;24.36;101072.34;5093937;28;20048;-80
2023/08/13 01:19:28;;;;;;;0.93;0.50;;;;;;;34.48;24.85;101072.78;5098816;28;20583;-81
2023/08/13 01:21:57;;;;;;;0.60;0.60;;;;;;;34.47;24.83;101063.84;5107517;28;20110;-78
2023/08/13 01:24:27;;;;;;;0.63;0.57;;;;;;;34.44;25.15;101073.94;5110334;28;20040;-79
2023/08/13 01:27:06;;;;;;;1.23;0.50;;;;;;;34.38;25.63;101059.97;5104604;28;20505;-77
2023/08/13 01:29:44;;;;;;;1.17;0.50;;;;;;;34.34;25.30;101068.31;5103586;28;20453;-81
2023/08/13 01:32:15;;;;;;;1.23;0.55;;;;;;;34.32;25.57;101064.88;5093085;28;20115;-77
2023/08/13 01:34:45;;;;;;;0.57;0.50;;;;;;;34.28;25.20;101064.19;5106847;28;20044;-78
2023/08/13 01:37:14;;;;;;;1.02;0.70;;;;;;;34.21;25.35;101065.56;5102829;28;20052;-79
2023/08/13 01:39:44;;;;;;;1.77;0.80;;;;;;;34.18;25.73;101063.09;5105372;28;20136;-79
2023/08/13 01:42:12;;;;;;;0.70;0.57;;;;;;;34.12;25.79;101064.34;5101985;28;20134;-77
2023/08/13 01:44:41;;;;;;;1.27;0.70;;;;;;;34.01;25.78;101064.13;5106313;28;20048;-82
2023/08/13 01:47:14;;;;;;;1.45;0.60;;;;;;;33.93;25.14;101059.25;5101784;28;20051;-79
2023/08/13 01:49:43;;;;;;;0.57;0.57;;;;;;;33.79;25.23;101059.28;5096568;28;20052;-79
2023/08/13 01:52:12;;;;;;;1.77;0.60;;;;;;;33.71;25.57;101064.25;5094244;28;20050;-81
2023/08/13 01:54:40;;;;;;;2.47;0.65;;;;;;;33.64;25.75;101058.41;5093045;28;20089;-78
2023/08/13 01:57:10;;;;;;;0.70;0.60;;;;;;;33.55;25.95;101057.13;5092572;28;20044;-79
2023/08/13 01:59:42;;;;;;;1.17;0.70;;;;;;;33.46;26.42;101060.38;5100088;28;20039;-80
2023/08/13 02:02:10;;;;;;;;;;;;;;;33.30;26.38;101073.88;5101993;28;20048;-79
2023/08/13 02:04:38;;;;;;;1.50;0.80;;;;;;;33.18;26.67;101067.44;5099327;28;19928;-77
2023/08/13 02:07:07;;;;;;;1.45;0.68;;;;;;;33.13;26.40;101074.91;5099766;28;20059;-77
2023/08/13 02:09:35;;;;;;;1.00;0.50;;;;;;;33.05;26.48;101071.81;5100783;28;20059;-77
2023/08/13 02:12:07;;;;;;;2.55;0.88;;;;;;;32.97;27.57;101063.34;5105870;28;20047;-77
2023/08/13 02:14:37;;;;;;;1.27;0.80;;;;;;;32.90;26.64;101067.34;5101542;28;20054;-78
2023/08/13 02:17:06;;;;;;;1.15;0.80;;;;;;;32.81;27.16;101075.94;5105681;28;20044;-81
2023/08/13 02:19:35;;;;;;;1.00;0.70;;;;;;;32.70;27.44;101069.38;5105892;28;20044;-76
2023/08/13 02:22:03;;;;;;;0.98;0.77;;;;;;;32.63;27.13;101065.34;5095123;28;20051;-76
2023/08/13 02:24:32;;;;;;;2.05;0.95;;;;;;;32.55;28.01;101067.59;5109441;28;20048;-77
2023/08/13 02:27:00;;;;;;;1.00;0.73;;;;;;;32.46;28.18;101062.72;5107307;28;20059;-76
2023/08/13 02:29:29;;;;;;;1.30;0.80;;;;;;;32.33;28.43;101068.78;5103833;28;20031;-76
2023/08/13 02:31:59;;;;;;;1.33;0.68;;;;;;;32.22;28.74;101070.34;5116296;28;20253;-77
2023/08/13 02:34:28;;;;;;;0.82;0.70;;;;;;;32.13;29.12;101071.72;5120123;27;20060;-77
2023/08/13 02:36:56;;;;;;;2.10;0.73;;;;;;;32.04;29.29;101073.09;5104614;28;20055;-75
2023/08/13 02:39:25;;;;;;;0.70;0.60;;;;;;;31.93;29.18;101079.03;5101607;28;20036;-75
2023/08/13 02:41:53;;;;;;;1.08;0.75;;;;;;;31.82;29.68;101077.88;5103811;28;20051;-76
2023/08/13 02:44:22;;;;;;;0.95;0.75;;;;;;;31.71;29.48;101081.16;5109338;28;20047;-75
2023/08/13 02:46:53;;;;;;;1.77;0.90;;;;;;;31.62;29.96;101084.31;5094979;28;20052;-77
2023/08/13 02:49:23;;;;;;;0.80;0.63;;;;;;;31.51;30.04;101075.03;5110405;28;20298;-77
2023/08/13 02:51:52;;;;;;;2.40;0.70;;;;;;;31.40;30.14;101082.72;5095508;28;20052;-79
2023/08/13 02:54:21;;;;;;;0.77;0.70;;;;;;;31.28;30.32;101083.38;5098195;28;20051;-75
2023/08/13 02:56:51;;;;;;;1.30;0.77;;;;;;;31.17;30.69;101085.75;5103929;28;20040;-76
2023/08/13 02:59:19;;;;;;;2.80;0.82;;;;;;;31.06;30.30;101079.16;5103611;28;20546;-78
2023/08/13 03:01:48;;;;;;;0.70;0.70;;;;;;;30.96;30.50;101093.06;5104177;28;20214;-76
2023/08/13 03:04:17;;;;;;;4.38;1.00;;;;;;;30.87;30.36;101097.91;5111831;28;20059;-76
2023/08/13 03:06:47;;;;;;;3.50;1.00;;;;;;;30.75;31.05;101090.50;5100399;28;20040;-76
2023/08/13 03:09:21;;;;;;;1.50;0.85;;;;;;;30.64;31.32;101104.38;5099477;28;20050;-77
2023/08/13 03:11:50;;;;;;;1.52;0.80;;;;;;;30.54;31.16;101104.91;5103925;28;20127;-75
2023/08/13 03:14:25;;;;;;;5.00;0.77;;;;;;;30.46;31.32;101102.59;5094930;28;20051;-75
2023/08/13 03:16:54;;;;;;;3.55;0.90;;;;;;;30.37;31.22;101105.69;5093310;28;20048;-76
2023/08/13 03:19:25;;;;;;;1.73;0.90;;;;;;;30.29;31.00;101113.22;5103395;28;20044;-74
2023/08/13 03:21:55;;;;;;;2.25;0.80;;;;;;;30.19;31.58;101102.06;5098120;28;20149;-74
2023/08/13 03:24:24;;;;;;;2.00;0.65;;;;;;;30.11;31.78;101110.44;5109902;27;20044;-77
2023/08/13 03:27:01;;;;;;;1.48;0.80;;;;;;;30.02;31.72;101111.72;5102875;28;20104;-75
2023/08/13 03:29:29;;;;;;;3.05;0.88;;;;;;;29.93;32.18;101108.63;5092390;28;20076;-76
2023/08/13 03:31:58;;;;;;;2.22;0.80;;;;;;;29.84;32.19;101116.09;5098364;28;20469;-74
2023/08/13 03:34:26;;;;;;;1.23;0.80;;;;;;;29.77;31.96;101117.31;5096538;28;20059;-75
2023/08/13 03:36:57;;;;;;;0.90;0.73;;;;;;;29.70;32.18;101115.84;5097618;28;20470;-73
2023/08/13 03:39:26;;;;;;;2.30;0.75;;;;;;;29.61;33.34;101121.56;5105361;28;20052;-77
2023/08/13 03:41:54;;;;;;;2.05;0.70;;;;;;;29.54;33.24;101123.63;5091209;28;20505;-74
2023/08/13 03:44:23;;;;;;;1.42;0.60;;;;;;;29.47;33.22;101124.84;5092471;28;20052;-74
2023/08/13 03:46:52;;;;;;;1.20;0.68;;;;;;;29.40;33.86;101129.56;5093134;28;20156;-76
2023/08/13 03:49:20;;;;;;;2.45;0.80;;;;;;;29.34;34.98;101139.63;5100923;28;20408;-75
2023/08/13 03:51:51;;;;;;;1.67;0.80;;;;;;;29.23;35.11;101138.31;5099965;28;20429;-76
2023/08/13 03:54:22;;;;;;;2.65;1.02;;;;;;;29.16;35.90;101142.16;5108796;28;20224;-75
2023/08/13 03:56:50;;;;;;;1.02;0.90;;;;;;;29.10;36.81;101146.88;5094511;28;20051;-75
2023/08/13 03:59:19;;;;;;;1.88;0.95;;;;;;;29.04;36.44;101145.28;5107359;28;20396;-75
2023/08/13 04:01:51;;;;;;;0.98;0.88;;;;;;;28.96;37.12;101148.28;5091550;28;20052;-75
2023/08/13 04:04:20;;;;;;;4.40;1.00;;;;;;;28.90;37.59;101150.31;5107255;28;20048;-76
2023/08/13 04:06:49;;;;;;;1.13;1.00;;;;;;;28.83;37.97;101145.25;5091173;28;20476;-74
2023/08/13 04:09:17;;;;;;;5.88;1.20;;;;;;;28.77;38.22;101144.63;5096368;28;20044;-74
2023/08/13 04:11:50;;;;;;;2.47;0.93;;;;;;;28.71;38.53;101144.88;5100128;28;20040;-75
2023/08/13 04:14:18;;;;;;;3.08;1.10;;;;;;;28.67;38.73;101149.44;5107731;28;20048;-74
2023/08/13 04:16:47;;;;;;;1.30;1.10;;;;;;;28.61;38.75;101155.00;5099881;28;20051;-75
2023/08/13 04:19:16;;;;;;;2.03;0.95;;;;;;;28.55;39.01;101160.59;5108631;27;20416;-74
2023/08/13 04:21:44;;;;;;;2.00;1.10;;;;;;;28.46;39.24;101156.47;5107636;28;20412;-75
2023/08/13 04:24:14;;;;;;;1.55;1.10;;;;;;;28.40;39.47;101151.38;5105320;28;20453;-74
2023/08/13 04:26:42;;;;;;;2.20;1.15;;;;;;;28.34;39.52;101151.63;5107353;28;20517;-76
2023/08/13 04:29:13;;;;;;;1.33;0.93;;;;;;;28.28;39.52;101155.38;5097254;28;20520;-75
2023/08/13 04:31:41;;;;;;;1.25;0.98;;;;;;;28.23;39.97;101154.69;5101993;28;20048;-75
2023/08/13 04:34:10;;;;;;;1.92;0.95;;;;;;;28.14;40.18;101150.56;5089921;28;20056;-74
2023/08/13 04:36:38;;;;;;;1.52;0.90;;;;;;;28.08;40.25;101152.59;5097500;28;20527;-74
2023/08/13 04:39:16;;;;;;;2.35;1.13;;;;;;;28.02;40.85;101156.34;5102794;28;20047;-75
2023/08/13 04:41:45;;;;;;;4.68;1.10;;;;;;;27.94;40.87;101153.97;5092744;28;20075;-74
2023/08/13 04:44:19;;;;;;;3.25;1.05;;;;;;;27.90;40.95;101156.78;5104807;28;20116;-75
2023/08/13 04:46:48;;;;;;;1.73;0.90;;;;;;;27.86;40.80;101163.16;5095839;28;20124;-77
2023/08/13 04:49:16;;;;;;;1.08;0.88;;;;;;;27.79;40.89;101166.00;5096223;28;20143;-75
2023/08/13 04:51:45;;;;;;;1.63;1.10;;;;;;;27.76;41.46;101170.53;5108244;28;20138;-76
2023/08/13 04:54:14;;;;;;;2.13;1.10;;;;;;;27.68;41.49;101167.31;5105732;28;21416;-75
2023/08/13 04:56:45;;;;;;;3.00;0.88;;;;;;;27.62;41.59;101168.38;5091565;28;20052;-76
2023/08/13 04:59:15;;;;;;;2.00;1.17;;;;;;;27.54;42.07;101166.00;5103058;28;20059;-76
2023/08/13 05:01:44;;;;;;;3.10;1.05;;;;;;;27.49;41.69;101167.97;5101589;28;20048;-75
2023/08/13 05:04:12;;;;;;;2.25;0.98;;;;;;;27.42;41.99;101163.78;5097136;27;20047;-73
2023/08/13 05:06:41;;;;;;;2.10;1.25;;;;;;;27.36;42.36;101172.81;5102884;28;20117;-73
2023/08/13 05:09:09;;;;;;;1.50;1.00;;;;;;;27.30;42.01;101167.69;5099290;28;20035;-75
2023/08/13 05:11:38;;;;;;;2.53;1.20;;;;;;;27.24;42.40;101170.56;5110662;28;20052;-74
2023/08/13 05:14:06;;;;;;;2.88;1.17;;;;;;;27.18;42.57;101162.75;5105786;28;20048;-75
2023/08/13 05:16:37;;;;;;;3.38;1.23;;;;;;;27.11;42.49;101171.84;5095703;28;20108;-73
2023/08/13 05:19:10;;;;;;;2.53;1.00;;;;;;;27.06;43.06;101163.19;5093715;28;20543;-76
2023/08/13 05:21:39;;;;;;;3.15;1.38;;;;;;;26.97;43.42;101168.78;5101883;28;20115;-77
2023/08/13 05:24:08;;;;;;;3.30;1.05;;;;;;;26.87;43.42;101169.09;5106915;28;20394;-76
2023/08/13 05:26:37;;;;;;;2.90;1.10;;;;;;;26.77;43.59;101164.97;5094473;28;20062;-77
2023/08/13 05:29:06;;;;;;;1.63;1.17;;;;;;;26.69;43.97;101165.22;5092674;28;20044;-75
2023/08/13 05:31:39;;;;;;;1.38;0.95;;;;;;;26.62;44.17;101165.44;5099288;28;20047;-74
2023/08/13 05:34:14;;;;;;;3.03;1.30;;;;;;;26.54;44.58;101161.22;5101882;28;20056;-71
2023/08/13 05:36:50;;;;;;;2.42;1.20;;;;;;;26.47;44.59;101151.69;5110120;28;20062;-72
2023/08/13 05:39:22;;;;;;;2.08;0.80;;;;;;;26.41;45.09;101149.25;5113339;28;20096;-74
2023/08/13 05:41:51;;;;;;;1.42;1.17;;;;;;;26.36;45.01;101145.84;5098460;28;20048;-74
2023/08/13 05:44:19;;;;;;;3.10;1.40;;;;;;;26.22;45.08;101134.78;5094347;28;20048;-74
2023/08/13 05:46:49;;;;;;;1.40;1.08;;;;;;;26.23;46.03;101155.09;5092875;28;20048;-75
2023/08/13 05:49:20;;;;;;;3.00;1.35;;;;;;;26.11;46.62;101158.94;5102948;28;20063;-74
2023/08/13 05:51:49;;;;;;;2.88;1.05;;;;;;;25.97;46.96;101158.47;5094918;28;20040;-74
2023/08/13 05:54:17;;;;;;;1.38;1.10;;;;;;;25.88;47.25;101167.56;5094232;28;20048;-75
2023/08/13 05:56:46;;;;;;;2.13;1.40;;;;;;;25.77;47.02;101167.84;5091095;28;20052;-75
2023/08/13 05:59:15;;;;;;;2.35;1.20;;;;;;;25.71;47.34;101163.56;5093003;28;20467;-73
2023/08/13 06:01:47;;;;;;;6.70;1.38;;;;;;;25.68;47.31;101166.31;5098057;28;20047;-73
2023/08/13 06:04:17;;;;;;;1.65;1.10;;;;;;;25.65;47.60;101163.72;5100592;28;20051;-74
2023/08/13 06:06:47;;;;;;;1.95;1.30;;;;;;;25.61;48.48;101167.38;5098771;28;20043;-76
2023/08/13 06:09:18;;;;;;;3.15;1.17;;;;;;;25.42;47.83;101151.06;5108696;28;20051;-74
2023/08/13 06:11:49;;;;;;;2.72;1.50;;;;;;;25.42;48.42;101166.97;5103821;28;20048;-75
2023/08/13 06:14:17;;;;;;;1.70;1.25;;;;;;;25.35;49.23;101165.38;5094012;28;20039;-75
2023/08/13 06:16:46;;;;;;;1.52;1.20;;;;;;;25.28;49.61;101175.25;5110108;28;20044;-75
2023/08/13 06:19:14;;;;;;;2.55;1.10;;;;;;;25.21;49.67;101168.38;5109313;28;20493;-76
2023/08/13 06:21:46;;;;;;;2.28;0.95;;;;;;;25.15;49.34;101164.97;5101918;28;20056;-74
2023/08/13 06:24:14;;;;;;;;;;;;;;;25.14;49.94;101168.53;5107310;28;20047;-74
2023/08/13 06:26:43;;;;;;;2.42;1.23;;;;;;;25.09;49.31;101168.66;5091888;28;19977;-76
2023/08/13 06:29:12;;;;;;;3.22;1.40;;;;;;;25.06;49.61;101169.59;5099413;28;20085;-77
2023/08/13 06:31:40;;;;;;;1.70;1.00;;;;;;;24.99;48.60;101164.47;5096466;28;20135;-75
2023/08/13 06:34:09;;;;;;;1.85;1.10;;;;;;;24.94;48.88;101166.38;5101194;28;20055;-76
2023/08/13 06:36:37;;;;;;;2.25;1.00;;;;;;;24.87;49.22;101161.22;5095066;28;20463;-75
2023/08/13 06:39:08;;;;;;;2.47;1.10;;;;;;;24.80;48.68;101162.25;5092600;28;20055;-76
2023/08/13 06:41:37;;;;;;;1.13;1.00;;;;;;;24.76;48.95;101160.63;5092920;28;20051;-74
2023/08/13 06:44:06;;;;;;;1.52;1.20;;;;;;;24.74;48.85;101172.13;5099131;28;20051;-77
2023/08/13 06:46:36;;;;;;;3.47;1.30;;;;;;;24.70;48.28;101165.19;5093030;28;20044;-77
2023/08/13 06:49:04;;;;;;;1.40;1.00;;;;;;;24.64;48.45;101160.88;5101174;28;20055;-75
2023/08/13 06:51:33;;;;;;;2.80;1.50;;;;;;;24.59;48.37;101160.13;5095689;28;20044;-74
2023/08/13 06:54:01;;;;;;;1.73;1.20;;;;;;;24.56;48.20;101163.72;5094227;28;20052;-77
2023/08/13 06:56:32;;;;;;;2.22;1.30;;;;;;;24.51;48.57;101154.09;5102083;28;20046;-75
2023/08/13 06:59:01;;;;;;;6.40;1.65;;;;;;;24.48;48.27;101154.19;5107306;28;20497;-76
2023/08/13 07:01:30;;;;;;;2.38;1.67;;;;;;;24.45;48.65;101155.09;5105847;28;20048;-74
2023/08/13 07:03:58;;;;;;;1.90;1.38;;;;;;;24.45;49.12;101158.59;5104166;28;20043;-75
2023/08/13 07:06:27;;;;;;;3.53;1.50;;;;;;;24.44;48.66;101161.28;5098206;28;20040;-75
2023/08/13 07:08:56;;;;;;;1.80;1.40;;;;;;;24.42;48.38;101157.81;5097398;28;20036;-75
2023/08/13 07:11:24;;;;;;;2.85;1.80;;;;;;;24.38;49.12;101164.06;5105976;28;20048;-76
2023/08/13 07:13:57;;;;;;;2.58;1.48;;;;;;;24.23;49.51;101150.28;5102243;28;20132;-75
2023/08/13 07:16:25;;;;;;;3.00;1.60;;;;;;;24.26;49.73;101165.22;5105661;28;20266;-74
2023/08/13 07:18:54;;;;;;;4.63;1.60;;;;;;;24.19;50.08;101168.84;5102868;28;20055;-76
2023/08/13 07:21:25;;;;;;;3.35;1.77;;;;;;;24.12;50.13;101161.94;5094813;28;20055;-75
2023/08/13 07:23:54;;;;;;;2.22;1.75;;;;;;;24.08;49.93;101165.59;5106881;28;20052;-75
2023/08/13 07:26:23;;;;;;;2.92;2.00;;;;;;;23.99;50.85;101159.56;5103098;27;20044;-74
2023/08/13 07:28:51;;;;;;;3.08;2.00;;;;;;;23.94;50.60;101164.06;5095258;28;20134;-76
2023/08/13 07:31:27;;;;;;;3.05;1.75;;;;;;;23.89;51.59;101163.31;5106389;28;20044;-74
2023/08/13 07:33:56;;;;;;;2.17;1.50;;;;;;;23.81;52.15;101170.50;5101651;27;20066;-75
2023/08/13 07:36:24;;;;;;;3.05;1.67;;;;;;;23.78;51.84;101174.06;5098177;28;20048;-74
2023/08/13 07:38:53;;;;;;;2.10;1.90;;;;;;;23.76;51.81;101175.00;5102695;28;20048;-75
2023/08/13 07:41:22;;;;;;;2.20;1.77;;;;;;;23.78;51.98;101167.91;5097561;28;20097;-74
2023/08/13 07:43:54;;;;;;;2.97;1.63;;;;;;;23.75;51.34;101170.59;5093545;28;20622;-77
2023/08/13 07:46:26;;;;;;;3.67;1.85;;;;;;;23.73;51.56;101169.72;5109798;28;20043;-76
2023/08/13 07:48:54;;;;;;;;;;;;;;;23.64;51.99;101176.06;5111878;28;20051;-74
2023/08/13 07:51:23;;;;;;;2.20;1.83;;;;;;;23.59;52.43;101170.88;5109898;28;19920;-74
2023/08/13 07:53:52;;;;;;;3.67;1.70;;;;;;;23.53;52.36;101167.47;5100889;28;20500;-75
2023/08/13 07:56:20;;;;;;;2.03;1.60;;;;;;;23.49;52.50;101171.91;5098013;28;20048;-74
2023/08/13 07:58:49;;;;;;;2.78;2.13;;;;;;;23.45;51.88;101175.50;5095490;28;20044;-74
2023/08/13 08:01:18;;;;;;;3.22;1.92;;;;;;;23.40;52.60;101164.16;5107237;28;20044;-75
2023/08/13 08:03:49;;;;;;;2.60;1.80;;;;;;;23.35;52.81;101169.50;5103955;28;20060;-75
2023/08/13 08:06:21;;;;;;;2.63;1.60;;;;;;;23.31;53.02;101177.50;5097529;28;20088;-75
2023/08/13 08:08:49;;;;;;;3.60;1.80;;;;;;;23.27;52.76;101178.44;5098911;28;20280;-75
2023/08/13 08:11:18;;;;;;;1.73;1.60;;;;;;;23.21;51.30;101176.78;5106283;28;20075;-74
2023/08/13 08:13:46;;;;;;;1.98;1.63;;;;;;;23.20;51.81;101178.56;5103571;28;20073;-74
2023/08/13 08:16:15;;;;;;;3.70;1.70;;;;;;;23.19;51.22;101170.66;5104996;28;20056;-74
2023/08/13 08:18:43;;;;;;;1.65;1.27;;;;;;;23.19;51.70;101174.16;5110002;28;20040;-76
2023/08/13 08:21:14;;;;;;;2.35;1.73;;;;;;;23.18;51.77;101167.16;5105081;28;20052;-74
2023/08/13 08:23:43;;;;;;;3.67;1.67;;;;;;;23.18;51.47;101169.78;5113309;28;20069;-73
2023/08/13 08:26:11;;;;;;;2.28;1.52;;;;;;;23.17;51.43;101157.47;5110424;28;20047;-74
2023/08/13 08:28:40;;;;;;;2.00;1.50;;;;;;;23.19;51.33;101166.25;5098879;28;20044;-73
2023/08/13 08:31:09;;;;;;;2.22;1.38;;;;;;;23.18;51.26;101156.59;5099506;28;20079;-74
2023/08/13 08:33:37;;;;;;;2.33;1.50;;;;;;;23.18;51.12;101159.22;5109787;28;20048;-75
2023/08/13 08:36:06;;;;;;;3.35;1.60;;;;;;;23.16;51.31;101157.53;5113688;28;20052;-73
2023/08/13 08:38:37;;;;;;;2.97;1.48;;;;;;;23.17;51.31;101160.13;5105128;28;20048;-74
2023/08/13 08:41:10;;;;;;;3.17;1.42;;;;;;;23.16;50.81;101154.88;5119958;28;20058;-74
2023/08/13 08:43:40;;;;;;;1.58;1.25;;;;;;;23.16;51.64;101158.38;5113023;28;20059;-73
2023/08/13 08:46:11;;;;;;;1.95;1.30;;;;;;;23.18;51.38;101156.59;5102307;28;20517;-75
2023/08/13 08:48:42;;;;;;;2.67;1.23;;;;;;;23.18;51.38;101146.03;5096069;28;20935;-73
2023/08/13 08:51:12;;;;;;;2.92;1.60;;;;;;;23.20;51.09;101160.09;5095564;28;20043;-75
2023/08/13 08:53:43;;;;;;;1.92;1.40;;;;;;;23.18;51.56;101146.03;5097376;28;20044;-74
2023/08/13 08:56:11;;;;;;;3.25;1.40;;;;;;;23.14;52.93;101160.19;5111805;28;20047;-75
2023/08/13 08:58:40;;;;;;;1.70;1.30;;;;;;;23.12;51.42;101156.69;5095235;28;20048;-73
2023/08/13 09:01:09;;;;;;;2.15;1.27;;;;;;;23.08;51.87;101154.97;5102244;28;20070;-73
2023/08/13 09:03:37;;;;;;;2.50;1.50;;;;;;;23.03;51.67;101158.59;5093539;28;20592;-74
2023/08/13 09:06:06;;;;;;;1.70;1.50;;;;;;;22.99;52.90;101156.00;5105243;28;20062;-73
2023/08/13 09:08:34;;;;;;;1.85;1.30;;;;;;;22.94;51.54;101156.94;5103962;28;20044;-72
2023/08/13 09:11:05;;;;;;;2.40;1.25;;;;;;;22.92;51.80;101158.72;5103793;27;20044;-74
2023/08/13 09:13:35;;;;;;;2.67;1.42;;;;;;;22.89;51.62;101158.78;5101128;28;20044;-73
2023/08/13 09:16:04;;;;;;;1.58;1.20;;;;;;;22.87;51.31;101155.28;5093474;28;20048;-75
2023/08/13 09:18:40;;;;;;;2.22;1.27;;;;;;;22.87;50.83;101150.88;5103661;28;20047;-79
2023/08/13 09:21:12;;;;;;;1.33;1.10;;;;;;;22.84;51.36;101145.66;5101184;28;20066;-76
2023/08/13 09:23:41;;;;;;;1.85;1.42;;;;;;;22.79;51.76;101153.66;5100538;28;20132;-75
2023/08/13 09:26:11;;;;;;;1.63;1.20;;;;;;;22.74;51.89;101147.53;5104649;28;20100;-75
2023/08/13 09:28:44;;;;;;;3.00;1.30;;;;;;;22.70;51.88;101159.06;5092824;28;20048;-73
2023/08/13 09:31:16;;;;;;;2.70;1.25;;;;;;;22.63;52.08;101151.22;5094344;28;20129;-73
2023/08/13 09:33:46;;;;;;;1.73;1.27;;;;;;;22.58;51.98;101156.56;5100929;28;20109;-73
2023/08/13 09:36:15;;;;;;;3.28;1.50;;;;;;;22.53;52.12;101155.78;5078787;28;20946;-75
2023/08/13 09:38:43;;;;;;;1.92;1.10;;;;;;;22.48;52.20;101160.25;5082679;28;20486;-74
2023/08/13 09:41:17;;;;;;;2.80;1.48;;;;;;;22.46;52.51;101159.38;5079062;28;20091;-75
2023/08/13 09:43:47;;;;;;;2.63;1.13;;;;;;;22.43;52.61;101155.03;5089893;28;20507;-75
2023/08/13 09:46:21;;;;;;;2.00;1.08;;;;;;;22.40;52.62;101154.19;5079638;28;20333;-74
2023/08/13 09:48:51;;;;;;;2.53;1.23;;;;;;;22.37;52.41;101160.38;5074887;28;20056;-74
2023/08/13 09:51:27;;;;;;;2.08;1.20;;;;;;;22.34;52.93;101156.00;5081912;28;20110;-76
2023/08/13 09:54:01;;;;;;;2.22;1.33;;;;;;;22.30;53.42;101154.31;5082249;28;20055;-76
2023/08/13 09:56:32;;;;;;;1.55;1.20;;;;;;;22.26;53.50;101149.94;5085848;28;20047;-77
2023/08/13 09:59:02;;;;;;;2.00;1.10;;;;;;;22.24;53.83;101154.41;5080238;28;20692;-75
2023/08/13 10:01:30;;;;;;;1.75;1.40;;;;;;;22.22;53.07;101156.19;5078339;28;20109;-74
2023/08/13 10:04:00;;;;;;;1.92;1.33;;;;;;;22.17;53.60;101161.47;5082169;28;20610;-75
2023/08/13 10:06:29;;;;;;;1.40;1.27;;;;;;;22.15;53.43;101154.44;5087902;28;20048;-74
2023/08/13 10:08:57;;;;;;;2.80;1.50;;;;;;;22.11;53.33;101150.13;5076320;28;20048;-72
2023/08/13 10:11:26;;;;;;;1.83;1.30;;;;;;;22.09;53.04;101163.31;5088354;28;20547;-76
2023/08/13 10:13:57;;;;;;;1.58;1.27;;;;;;;22.06;53.13;101152.81;5074348;28;20057;-74
2023/08/13 10:16:27;;;;;;;2.25;1.48;;;;;;;22.04;53.10;101159.88;5087329;28;20036;-74
2023/08/13 10:19:00;;;;;;;1.80;1.50;;;;;;;22.01;53.09;101151.97;5075042;28;20048;-75
2023/08/13 10:21:35;;;;;;;2.63;1.52;;;;;;;21.99;53.42;101152.88;5083375;28;20056;-76
2023/08/13 10:24:05;;;;;;;2.53;1.33;;;;;;;21.95;53.29;101147.66;5082694;28;20044;-75
2023/08/13 10:26:34;;;;;;;2.53;1.17;;;;;;;21.93;53.44;101144.16;5083153;28;20049;-75
2023/08/13 10:29:16;;;;;;;1.88;1.55;;;;;;;21.93;53.23;101148.56;5082218;28;20486;-74
2023/08/13 10:31:49;;;;;;;;;;;;;;;21.91;52.76;101145.09;5093684;28;20135;-74
2023/08/13 10:34:21;;;;;;;3.65;1.38;;;;;;;21.92;52.85;101152.09;5084530;28;19920;-76
2023/08/13 10:36:53;;;;;;;2.05;1.30;;;;;;;21.92;52.94;101152.97;5099521;28;20048;-75
2023/08/13 10:39:35;;;;;;;2.78;1.40;;;;;;;21.92;52.90;101152.97;5100580;28;20064;-74
2023/08/13 10:42:07;;;;;;;2.75;1.10;;;;;;;21.92;52.36;101150.34;5096211;28;20048;-76
2023/08/13 10:44:43;;;;;;;1.27;1.08;;;;;;;21.92;52.67;101152.97;5095886;28;20052;-73
2023/08/13 10:47:11;;;;;;;1.38;1.10;;;;;;;21.93;52.26;101148.56;5098367;28;20058;-74
2023/08/13 10:49:43;;;;;;;2.17;1.17;;;;;;;21.92;51.99;101155.63;5098112;28;20439;-74
2023/08/13 10:52:14;;;;;;;2.40;1.30;;;;;;;21.93;52.39;101154.72;5096322;28;20115;-72
2023/08/13 10:54:44;;;;;;;1.80;1.27;;;;;;;21.91;52.62;101156.47;5097730;28;20048;-75
2023/08/13 10:57:12;;;;;;;1.27;1.05;;;;;;;21.90;52.19;101157.38;5114091;28;20100;-73
2023/08/13 10:59:43;;;;;;;2.03;1.10;;;;;;;21.89;52.18;101157.41;5103192;28;20048;-74
2023/08/13 11:02:14;;;;;;;3.50;1.42;;;;;;;21.85;52.67;101159.22;5096727;28;20452;-74
2023/08/13 11:04:44;;;;;;;1.80;1.10;;;;;;;21.80;52.88;101161.00;5095034;28;20048;-75
2023/08/13 11:07:13;;;;;;;1.42;1.02;;;;;;;21.76;52.69;101159.28;5107338;28;20073;-75
2023/08/13 11:09:43;;;;;;;2.25;1.20;;;;;;;21.73;52.92;101161.94;5107795;28;20057;-76
2023/08/13 11:12:12;;;;;;;1.92;1.00;;;;;;;21.70;53.16;101156.72;5107292;28;20507;-76
2023/08/13 11:14:44;;;;;;;2.92;1.17;;;;;;;21.67;52.77;101149.72;5095637;28;20050;-76
2023/08/13 11:17:13;;;;;;;1.90;1.20;;;;;;;21.65;52.58;101148.88;5095067;28;20045;-77
2023/08/13 11:19:41;;;;;;;1.55;1.00;;;;;;;21.66;52.75;101147.09;5101080;28;20048;-75
2023/08/13 11:22:11;;;;;;;2.53;1.30;;;;;;;21.64;53.24;101147.09;5099722;28;20048;-73
2023/08/13 11:24:44;;;;;;;2.33;1.15;;;;;;;21.62;54.06;101137.47;5095805;28;20485;-73
2023/08/13 11:27:13;;;;;;;1.88;1.48;;;;;;;21.61;54.73;101143.66;5095548;28;20121;-74
2023/08/13 11:29:42;;;;;;;1.80;0.98;;;;;;;21.59;54.43;101148.06;5101997;28;20048;-73
2023/08/13 11:32:13;;;;;;;1.15;1.00;;;;;;;21.58;53.54;101146.28;5113409;27;20047;-73
2023/08/13 11:34:44;;;;;;;4.03;0.90;;;;;;;21.58;53.15;101148.94;5108535;28;20066;-74
2023/08/13 11:37:13;;;;;;;1.27;0.98;;;;;;;21.60;53.44;101149.78;5094586;28;20056;-73
2023/08/13 11:39:42;;;;;;;1.13;0.80;;;;;;;21.61;53.20;101154.19;5103078;28;20047;-71